Time;durP1;ratioP1;P1;durP2;ratioP2;P2;SDS_P1;SDS_P2;PMS_P1;PMS_P2;Temp;Humidity;BMP_temperature;BMP_pressure;BME280_temperature;BME280_humidity;BME280_pressure;Samples;Min_cycle;Max_cycle;Signal;HPM_P1;HPM_P2
2022/04/09 00:01:56;;;;;;;;;;;;;;;11.40;49.95;100283.13;5054551;28;20299;-74
2022/04/09 00:04:21;;;;;;;;;;;;;;;11.07;50.33;100283.94;5049679;28;19913;-73
2022/04/09 00:06:47;;;;;;;;;;;;;;;12.15;48.23;100283.50;5032540;28;20033;-72
2022/04/09 00:09:12;;;;;;;;;;;;;;;11.98;48.55;100282.72;5034168;28;20373;-73
2022/04/09 00:11:37;;;;;;;;;;;;;;;11.54;50.30;100283.66;5033929;28;19917;-73
2022/04/09 00:14:02;;;;;;;;;;;;;;;12.74;47.13;100285.31;5032484;28;20296;-72
2022/04/09 00:16:28;;;;;;;;;;;;;;;12.35;48.17;100286.47;5034271;28;19927;-74
2022/04/09 00:18:53;;;;;;;;;;;;;;;12.59;47.82;100303.22;5034136;28;19939;-73
2022/04/09 00:21:18;;;;;;;;;;;;;;;13.54;45.53;100298.03;5033866;28;19916;-74
2022/04/09 00:23:43;;;;;;;;;;;;;;;13.06;47.05;100299.75;5033989;28;20015;-72
2022/04/09 00:26:09;;;;;;;;;;;;;;;13.03;46.77;100297.53;5033723;28;19976;-73
2022/04/09 00:28:34;;;;;;;;;;;;;;;12.07;49.68;100292.00;5049336;28;19921;-73
2022/04/09 00:30:59;;;;;;;;;;;;;;;12.39;49.16;100298.38;5034016;28;20300;-73
2022/04/09 00:33:24;;;;;;;;;;;;;;;11.15;52.14;100310.44;5033559;28;19932;-73
2022/04/09 00:35:49;;;;;;;;;;;;;;;10.99;53.20;100318.44;5033643;28;19919;-73
2022/04/09 00:38:15;;;;;;;;;;;;;;;10.66;53.74;100319.16;5038463;28;20003;-72
2022/04/09 00:40:40;;;;;;;;;;;;;;;11.16;52.00;100314.72;5054121;28;19996;-73
2022/04/09 00:43:05;;;;;;;;;;;;;;;11.16;51.76;100322.00;5053403;28;19924;-72
2022/04/09 00:45:30;;;;;;;;;;;;;;;10.84;52.69;100331.59;5053551;28;19963;-72
2022/04/09 00:47:56;;;;;;;;;;;;;;;11.49;51.06;100330.94;5053169;28;19966;-72
2022/04/09 00:50:21;;;;;;;;;;;;;;;11.97;49.78;100335.75;5053295;28;19969;-72
2022/04/09 00:52:48;;;;;;;;;;;;;;;12.11;49.41;100326.28;5053593;28;19916;-72
2022/04/09 00:55:14;;;;;;;;;;;;;;;12.61;48.28;100338.81;5053171;28;20378;-73
2022/04/09 00:57:41;;;;;;;;;;;;;;;12.96;46.48;100336.53;5053120;28;19917;-74
2022/04/09 01:00:09;;;;;;;;;;;;;;;12.73;46.94;100340.34;5053250;28;19916;-74
2022/04/09 01:02:38;;;;;;;;;;;;;;;11.79;48.96;100338.75;5053351;28;19921;-73
2022/04/09 01:05:05;;;;;;;;;;;;;;;12.05;48.80;100346.13;5052765;28;19912;-72
2022/04/09 01:07:30;;;;;;;;;;;;;;;11.59;50.51;100372.53;5053691;28;20273;-74
2022/04/09 01:09:55;;;;;;;;;;;;;;;11.16;51.34;100378.47;5053140;28;19984;-71
2022/04/09 01:12:21;;;;;;;;;;;;;;;9.90;54.51;100370.34;5053153;28;20281;-74
2022/04/09 01:14:46;;;;;;;;;;;;;;;10.36;53.74;100381.13;5052801;28;19939;-73
2022/04/09 01:17:12;;;;;;;;;;;;;;;10.57;52.95;100383.19;5052779;28;19927;-74
2022/04/09 01:19:37;;;;;;;;;;;;;;;10.11;53.21;100375.16;5053135;28;20352;-74
2022/04/09 01:22:03;;;;;;;;;;;;;;;10.28;53.02;100386.03;5053005;28;19917;-74
2022/04/09 01:24:28;;;;;;;;;;;;;;;10.65;52.85;100400.84;5052315;28;19921;-73
2022/04/09 01:26:54;;;;;;;;;;;;;;;10.02;54.17;100416.81;5052559;28;19970;-73
2022/04/09 01:29:19;;;;;;;;;;;;;;;10.47;52.41;100409.03;5052378;28;19956;-74
2022/04/09 01:31:45;;;;;;;;;;;;;;;10.19;54.57;100425.00;5053093;28;19997;-73
2022/04/09 01:34:13;;;;;;;;;;;;;;;10.46;53.82;100415.44;5050432;28;20384;-73
2022/04/09 01:36:38;;;;;;;;;;;;;;;10.21;55.25;100423.75;5052371;28;19948;-72
2022/04/09 01:39:04;;;;;;;;;;;;;;;10.10;55.69;100424.53;5052268;28;19978;-74
2022/04/09 01:41:29;;;;;;;;;;;;;;;10.14;55.37;100427.59;5052538;28;19924;-72
2022/04/09 01:43:54;;;;;;;;;;;;;;;10.85;53.82;100432.69;5050474;28;19908;-73
2022/04/09 01:46:19;;;;;;;;;;;;;;;10.21;56.00;100439.03;5052848;28;19999;-73
2022/04/09 01:48:45;;;;;;;;;;;;;;;8.88;59.48;100438.41;5052466;28;19966;-72
2022/04/09 01:51:10;;;;;;;;;;;;;;;10.25;56.11;100440.19;5052233;28;19995;-72
2022/04/09 01:53:36;;;;;;;;;;;;;;;10.08;57.39;100436.53;5050710;28;19931;-72
2022/04/09 01:56:02;;;;;;;;;;;;;;;11.22;53.87;100442.84;5052740;28;20008;-72
2022/04/09 01:58:27;;;;;;;;;;;;;;;10.64;55.38;100434.13;5051373;28;19929;-72
2022/04/09 02:00:58;;;;;;;;;;;;;;;11.32;53.09;100442.28;5052341;28;20380;-71
2022/04/09 02:03:24;;;;;;;;;;;;;;;11.05;53.54;100455.44;5052004;28;19916;-71
2022/04/09 02:05:49;;;;;;;;;;;;;;;11.19;53.43;100462.19;5051215;28;20334;-72
2022/04/09 02:08:14;;;;;;;;;;;;;;;11.17;53.87;100452.72;5052064;28;19913;-72
2022/04/09 02:10:39;;;;;;;;;;;;;;;11.52;52.49;100451.53;5052147;28;19920;-72
2022/04/09 02:13:10;;;;;;;;;;;;;;;11.54;52.79;100462.03;5049976;28;19912;-71
2022/04/09 02:15:35;;;;;;;;;;;;;;;11.13;53.79;100473.06;5051580;28;19920;-72
2022/04/09 02:18:02;;;;;;;;;;;;;;;11.01;54.22;100478.47;5051668;28;19962;-72
2022/04/09 02:20:27;;;;;;;;;;;;;;;11.84;52.27;100480.66;5051548;28;20411;-72
2022/04/09 02:22:53;;;;;;;;;;;;;;;11.37;53.25;100490.78;5051721;28;19993;-71
2022/04/09 02:25:18;;;;;;;;;;;;;;;12.24;51.27;100484.88;5052452;28;19992;-72
2022/04/09 02:27:43;;;;;;;;;;;;;;;11.17;54.26;100484.97;5049823;28;19920;-72
2022/04/09 02:30:09;;;;;;;;;;;;;;;11.23;53.48;100492.94;5051421;28;19923;-72
2022/04/09 02:32:44;;;;;;;;;;;;;;;10.86;53.87;100486.22;5053307;28;19921;-71
2022/04/09 02:35:11;;;;;;;;;;;;;;;11.91;51.76;100489.44;5051343;28;19913;-72
2022/04/09 02:37:36;;;;;;;;;;;;;;;11.73;52.05;100503.09;5052375;28;19939;-72
2022/04/09 02:40:02;;;;;;;;;;;;;;;11.88;50.71;100500.66;5050489;28;19916;-72
2022/04/09 02:42:27;;;;;;;;;;;;;;;11.64;51.75;100493.72;5051506;28;20426;-71
2022/04/09 02:44:52;;;;;;;;;;;;;;;11.65;52.66;100504.25;5051708;28;19962;-71
2022/04/09 02:47:18;;;;;;;;;;;;;;;11.53;52.55;100514.25;5051346;28;19970;-71
2022/04/09 02:49:43;;;;;;;;;;;;;;;12.69;49.66;100513.59;5050675;28;19908;-73
2022/04/09 02:52:09;;;;;;;;;;;;;;;12.29;50.21;100520.00;5051455;28;20407;-72
2022/04/09 02:54:34;;;;;;;;;;;;;;;12.36;49.96;100517.16;5052120;28;20581;-72
2022/04/09 02:56:59;;;;;;;;;;;;;;;11.54;52.51;100526.63;5051616;28;19916;-72
2022/04/09 02:59:24;;;;;;;;;;;;;;;11.04;54.07;100530.97;5050833;28;19948;-70
2022/04/09 03:01:50;;;;;;;;;;;;;;;10.69;55.07;100530.16;5051298;28;19913;-72
2022/04/09 03:04:15;;;;;;;;;;;;;;;10.95;54.59;100541.25;5051330;28;19909;-72
2022/04/09 03:06:40;;;;;;;;;;;;;;;10.43;55.50;100551.06;5051121;28;20019;-73
2022/04/09 03:09:06;;;;;;;;;;;;;;;9.79;58.55;100558.97;5051521;28;19923;-73
2022/04/09 03:11:31;;;;;;;;;;;;;;;10.49;56.40;100557.34;5051063;28;20415;-73
2022/04/09 03:13:56;;;;;;;;;;;;;;;9.69;57.68;100556.81;5050860;28;19924;-72
2022/04/09 03:16:21;;;;;;;;;;;;;;;9.75;56.40;100544.38;5051389;28;20388;-74
2022/04/09 03:18:48;;;;;;;;;;;;;;;10.24;54.95;100560.22;5049656;28;20011;-74
2022/04/09 03:21:13;;;;;;;;;;;;;;;9.67;56.37;100553.56;5051046;28;20411;-74
2022/04/09 03:23:38;;;;;;;;;;;;;;;9.75;56.50;100568.50;5054839;28;19916;-73
2022/04/09 03:26:05;;;;;;;;;;;;;;;10.27;54.33;100575.88;5054955;28;19917;-73
2022/04/09 03:28:30;;;;;;;;;;;;;;;10.38;53.68;100574.25;5057109;28;19963;-75
2022/04/09 03:30:55;;;;;;;;;;;;;;;9.83;55.39;100580.81;5055070;28;19981;-72
2022/04/09 03:33:21;;;;;;;;;;;;;;;9.10;57.53;100588.88;5055208;28;19917;-75
2022/04/09 03:35:47;;;;;;;;;;;;;;;9.95;54.60;100608.50;5054621;28;19950;-74
2022/04/09 03:38:13;;;;;;;;;;;;;;;10.25;55.67;100587.88;5055534;28;19924;-74
2022/04/09 03:40:38;;;;;;;;;;;;;;;9.81;55.72;100594.44;5055855;28;19913;-74
2022/04/09 03:43:04;;;;;;;;;;;;;;;10.26;55.92;100593.03;5055215;28;19920;-74
2022/04/09 03:45:29;;;;;;;;;;;;;;;10.59;54.02;100595.22;5055474;28;20292;-73
2022/04/09 03:47:54;;;;;;;;;;;;;;;10.16;54.94;100603.50;5055361;28;20003;-73
2022/04/09 03:50:20;;;;;;;;;;;;;;;10.67;53.97;100610.19;5053000;28;20361;-73
2022/04/09 03:52:45;;;;;;;;;;;;;;;10.30;54.44;100613.00;5055549;28;19959;-72
2022/04/09 03:55:11;;;;;;;;;;;;;;;11.35;51.95;100614.78;5054927;28;19917;-72
2022/04/09 03:57:36;;;;;;;;;;;;;;;11.52;50.94;100605.97;5052342;28;19917;-74
2022/04/09 04:00:03;;;;;;;;;;;;;;;12.12;49.01;100610.75;5054417;28;20288;-73
2022/04/09 04:02:28;;;;;;;;;;;;;;;11.82;49.84;100610.13;5053504;28;19917;-73
2022/04/09 04:04:54;;;;;;;;;;;;;;;12.62;48.18;100616.19;5054318;28;20689;-74
2022/04/09 04:07:22;;;;;;;;;;;;;;;10.95;53.10;100607.63;5055192;28;19955;-75
2022/04/09 04:09:47;;;;;;;;;;;;;;;10.50;54.28;100613.53;5054892;28;19971;-74
2022/04/09 04:12:13;;;;;;;;;;;;;;;10.96;53.16;100607.41;5054576;28;20400;-75
2022/04/09 04:14:38;;;;;;;;;;;;;;;11.99;50.59;100610.22;5053108;28;19916;-74
2022/04/09 04:17:03;;;;;;;;;;;;;;;11.79;50.77;100613.31;5054080;28;19928;-74
2022/04/09 04:19:28;;;;;;;;;;;;;;;12.14;49.99;100616.72;5054923;28;19962;-73
2022/04/09 04:21:54;;;;;;;;;;;;;;;12.34;49.04;100617.06;5044544;28;19974;-73
2022/04/09 04:24:19;;;;;;;;;;;;;;;11.84;50.11;100628.75;5054133;28;19917;-73
2022/04/09 04:26:44;;;;;;;;;;;;;;;11.89;50.69;100623.47;5054621;28;19936;-73
2022/04/09 04:29:10;;;;;;;;;;;;;;;11.69;50.81;100628.44;5054642;28;19916;-74
2022/04/09 04:31:35;;;;;;;;;;;;;;;11.26;51.49;100624.22;5055311;28;20398;-75
2022/04/09 04:34:00;;;;;;;;;;;;;;;11.57;51.12;100636.50;5054261;28;20349;-73
2022/04/09 04:36:25;;;;;;;;;;;;;;;11.12;52.25;100641.69;5055112;28;20296;-73
2022/04/09 04:38:50;;;;;;;;;;;;;;;11.64;50.86;100647.94;5054014;28;20280;-73
2022/04/09 04:41:16;;;;;;;;;;;;;;;11.38;51.99;100648.44;5054488;28;19976;-74
2022/04/09 04:43:41;;;;;;;;;;;;;;;11.60;51.48;100646.78;5052894;28;19912;-73
2022/04/09 04:46:06;;;;;;;;;;;;;;;11.40;51.93;100651.72;5053788;28;19916;-73
2022/04/09 04:48:33;;;;;;;;;;;;;;;11.21;52.84;100659.09;5054208;28;19912;-75
2022/04/09 04:50:58;;;;;;;;;;;;;;;11.78;51.33;100664.69;5053622;28;19928;-74
2022/04/09 04:53:23;;;;;;;;;;;;;;;12.54;48.67;100667.03;5053803;28;19920;-73
2022/04/09 04:55:48;;;;;;;;;;;;;;;13.07;47.68;100665.53;5052970;28;19904;-73
2022/04/09 04:58:16;;;;;;;;;;;;;;;12.24;49.04;100686.13;5053886;28;19971;-73
2022/04/09 05:00:42;;;;;;;;;;;;;;;11.43;51.96;100687.06;5053637;28;19912;-73
2022/04/09 05:03:07;;;;;;;;;;;;;;;11.92;49.81;100688.44;5053840;28;19966;-73
2022/04/09 05:05:32;;;;;;;;;;;;;;;12.05;49.22;100687.31;5053481;28;19916;-73
2022/04/09 05:07:58;;;;;;;;;;;;;;;12.42;49.00;100693.19;5053420;28;19960;-74
2022/04/09 05:10:24;;;;;;;;;;;;;;;11.79;49.56;100687.88;5052366;28;19951;-74
2022/04/09 05:12:49;;;;;;;;;;;;;;;11.99;49.52;100685.63;5053468;28;19920;-73
2022/04/09 05:15:15;;;;;;;;;;;;;;;12.46;48.57;100694.34;5053583;28;19967;-73
2022/04/09 05:17:41;;;;;;;;;;;;;;;11.77;50.50;100700.75;5052700;28;19967;-73
2022/04/09 05:20:07;;;;;;;;;;;;;;;12.02;50.10;100704.81;5052622;28;20275;-72
2022/04/09 05:22:33;;;;;;;;;;;;;;;12.65;48.26;100707.41;5053210;28;19912;-74
2022/04/09 05:24:59;;;;;;;;;;;;;;;13.46;46.09;100711.47;5053084;28;19924;-75
2022/04/09 05:27:24;;;;;;;;;;;;;;;11.98;49.48;100703.66;5052401;28;19936;-73
2022/04/09 05:29:50;;;;;;;;;;;;;;;13.03;47.09;100725.59;5052765;28;20368;-74
2022/04/09 05:32:16;;;;;;;;;;;;;;;13.49;45.87;100719.91;5052740;28;20163;-75
2022/04/09 05:34:41;;;;;;;;;;;;;;;13.17;46.83;100722.34;5053206;28;19945;-75
2022/04/09 05:37:28;;;;;;;;;;;;;;;12.55;48.16;100730.63;5052392;28;20000;-74
2022/04/09 05:39:54;;;;;;;;;;;;;;;12.96;47.22;100725.75;5052670;28;19920;-74
2022/04/09 05:42:22;;;;;;;;;;;;;;;13.02;47.53;100732.88;5052748;28;19927;-73
2022/04/09 05:44:47;;;;;;;;;;;;;;;13.00;47.70;100734.16;5052006;28;20039;-74
2022/04/09 05:47:13;;;;;;;;;;;;;;;12.26;49.70;100751.38;5052079;28;19982;-73
2022/04/09 05:49:38;;;;;;;;;;;;;;;12.22;50.65;100766.38;5052738;28;19913;-72
2022/04/09 05:52:03;;;;;;;;;;;;;;;9.98;57.78;100774.50;5052051;28;19916;-74
2022/04/09 05:54:30;;;;;;;;;;;;;;;10.71;55.28;100773.44;5052036;28;19916;-72
2022/04/09 05:56:55;;;;;;;;;;;;;;;10.17;57.59;100777.00;5052360;28;19912;-73
2022/04/09 05:59:21;;;;;;;;;;;;;;;10.53;56.20;100779.63;5052163;28;19916;-73
2022/04/09 06:01:46;;;;;;;;;;;;;;;11.39;54.11;100781.91;5052450;28;19959;-73
2022/04/09 06:04:11;;;;;;;;;;;;;;;10.62;54.84;100785.53;5051641;28;20388;-72
2022/04/09 06:06:37;;;;;;;;;;;;;;;10.80;55.68;100782.81;5052372;28;20206;-75
2022/04/09 06:09:03;;;;;;;;;;;;;;;11.23;54.22;100787.97;5052331;28;20292;-71
2022/04/09 06:11:29;;;;;;;;;;;;;;;11.36;53.78;100788.56;5052177;28;20000;-74
2022/04/09 06:13:54;;;;;;;;;;;;;;;10.73;55.41;100795.50;5051492;28;20003;-73
2022/04/09 06:16:21;;;;;;;;;;;;;;;11.74;52.88;100803.50;5052084;28;20000;-73
2022/04/09 06:18:46;;;;;;;;;;;;;;;10.69;55.19;100807.78;5051712;28;20390;-73
2022/04/09 06:21:13;;;;;;;;;;;;;;;10.78;53.63;100808.28;5051872;28;20007;-74
2022/04/09 06:23:38;;;;;;;;;;;;;;;10.26;55.29;100817.81;5051924;28;19924;-71
2022/04/09 06:26:03;;;;;;;;;;;;;;;11.17;53.17;100811.22;5049882;28;20144;-71
2022/04/09 06:28:29;;;;;;;;;;;;;;;10.90;54.50;100819.91;5052511;28;19965;-72
2022/04/09 06:30:54;;;;;;;;;;;;;;;11.33;52.28;100832.09;5050171;28;19979;-73
2022/04/09 06:33:21;;;;;;;;;;;;;;;11.88;52.26;100832.66;5050343;28;19962;-72
2022/04/09 06:35:47;;;;;;;;;;;;;;;12.03;51.80;100832.19;5050543;28;19921;-71
2022/04/09 06:38:13;;;;;;;;;;;;;;;12.75;49.96;100852.34;5050758;28;20312;-73
2022/04/09 06:40:38;;;;;;;;;;;;;;;11.81;53.73;100858.06;5051195;28;19924;-73
2022/04/09 06:43:03;;;;;;;;;;;;;;;11.93;52.54;100851.63;5050496;28;19916;-72
2022/04/09 06:45:28;;;;;;;;;;;;;;;11.30;53.28;100872.88;5049918;28;19920;-72
2022/04/09 06:47:54;;;;;;;;;;;;;;;11.72;52.89;100865.66;5049996;28;19928;-73
2022/04/09 06:50:19;;;;;;;;;;;;;;;11.96;52.40;100875.41;5050623;28;19916;-72
2022/04/09 06:52:45;;;;;;;;;;;;;;;11.26;54.26;100881.66;5050586;28;19960;-71
2022/04/09 06:55:10;;;;;;;;;;;;;;;10.56;56.01;100870.56;5051380;28;19923;-75
2022/04/09 06:57:39;;;;;;;;;;;;;;;11.16;54.67;100882.19;5050404;28;19944;-74
2022/04/09 07:00:07;;;;;;;;;;;;;;;10.95;54.29;100877.31;5051059;28;19928;-71
2022/04/09 07:02:32;;;;;;;;;;;;;;;11.50;52.48;100883.34;5048971;28;19940;-71
2022/04/09 07:04:58;;;;;;;;;;;;;;;11.15;54.10;100885.13;5050293;28;19909;-73
2022/04/09 07:07:24;;;;;;;;;;;;;;;12.87;50.52;100880.94;5050028;28;19909;-72
2022/04/09 07:09:49;;;;;;;;;;;;;;;12.51;51.55;100891.19;5050095;28;19962;-73
2022/04/09 07:12:15;;;;;;;;;;;;;;;12.41;52.21;100885.56;5051706;28;20455;-71
2022/04/09 07:14:41;;;;;;;;;;;;;;;11.97;53.29;100890.50;5050758;28;20399;-71
2022/04/09 07:17:06;;;;;;;;;;;;;;;11.96;53.15;100888.03;5049211;28;19917;-71
2022/04/09 07:19:31;;;;;;;;;;;;;;;13.23;50.09;100887.84;5050723;28;19924;-73
2022/04/09 07:21:58;;;;;;;;;;;;;;;13.29;50.12;100897.69;5050512;28;19916;-73
2022/04/09 07:24:23;;;;;;;;;;;;;;;12.51;51.54;100896.59;5050635;28;19995;-73
2022/04/09 07:26:48;;;;;;;;;;;;;;;12.69;51.47;100896.44;5050261;28;20038;-74
2022/04/09 07:29:13;;;;;;;;;;;;;;;12.74;50.90;100897.38;5048690;28;19956;-72
2022/04/09 07:31:38;;;;;;;;;;;;;;;13.39;49.37;100900.59;5050955;28;19996;-73
2022/04/09 07:34:04;;;;;;;;;;;;;;;13.95;48.19;100903.16;5050419;28;19917;-73
2022/04/09 07:36:29;;;;;;;;;;;;;;;13.20;50.57;100916.16;5050389;28;19917;-73
2022/04/09 07:38:55;;;;;;;;;;;;;;;10.46;56.66;100941.97;5050959;28;19925;-74
2022/04/09 07:41:21;;;;;;;;;;;;;;;9.91;59.97;100934.78;5050759;28;20007;-74
2022/04/09 07:43:46;;;;;;;;;;;;;;;11.10;54.26;100928.00;5051208;28;19947;-73
2022/04/09 07:46:11;;;;;;;;;;;;;;;11.05;54.47;100944.00;5050545;28;20373;-74
2022/04/09 07:48:36;;;;;;;;;;;;;;;10.67;56.48;100941.56;5050486;28;20428;-72
2022/04/09 07:51:02;;;;;;;;;;;;;;;10.81;56.17;100943.03;5050344;28;19917;-74
2022/04/09 07:53:27;;;;;;;;;;;;;;;10.24;56.49;100956.88;5050729;28;20003;-73
2022/04/09 07:55:52;;;;;;;;;;;;;;;11.24;53.62;100956.41;5050765;28;20254;-72
2022/04/09 07:58:17;;;;;;;;;;;;;;;11.17;53.96;100959.16;5051109;28;20303;-71
2022/04/09 08:00:44;;;;;;;;;;;;;;;11.05;55.38;100962.81;5050398;28;20330;-73
2022/04/09 08:03:09;;;;;;;;;;;;;;;11.78;55.25;100961.66;5050142;28;19917;-74
2022/04/09 08:05:35;;;;;;;;;;;;;;;11.35;56.27;100961.81;5048931;28;19917;-72
2022/04/09 08:08:01;;;;;;;;;;;;;;;11.43;55.94;100960.69;5048907;28;19924;-72
2022/04/09 08:10:26;;;;;;;;;;;;;;;12.34;54.17;100967.38;5053210;28;19952;-71
2022/04/09 08:12:53;;;;;;;;;;;;;;;13.30;52.58;100955.19;5052270;28;19912;-72
2022/04/09 08:15:19;;;;;;;;;;;;;;;11.48;55.36;100966.19;5052539;28;19959;-75
2022/04/09 08:17:45;;;;;;;;;;;;;;;12.15;55.23;100970.38;5052037;28;19956;-72
2022/04/09 08:20:13;;;;;;;;;;;;;;;11.94;55.33;100977.16;5053007;28;19925;-74
2022/04/09 08:22:38;;;;;;;;;;;;;;;11.72;55.90;100983.28;5052978;28;19913;-75
2022/04/09 08:25:05;;;;;;;;;;;;;;;11.08;56.93;100978.53;5052861;28;19925;-73
2022/04/09 08:27:30;;;;;;;;;;;;;;;11.86;53.12;100982.03;5051621;28;20438;-74
2022/04/09 08:29:56;;;;;;;;;;;;;;;11.99;55.05;100984.56;5050866;28;19925;-75
2022/04/09 08:32:23;;;;;;;;;;;;;;;12.78;52.71;100992.91;5052329;28;19917;-74
2022/04/09 08:34:49;;;;;;;;;;;;;;;11.81;54.21;100992.69;5052770;28;20008;-74
2022/04/09 08:37:15;;;;;;;;;;;;;;;11.39;54.12;101003.38;5053253;28;20355;-73
2022/04/09 08:39:40;;;;;;;;;;;;;;;11.13;54.48;101001.00;5052463;28;19916;-73
2022/04/09 08:42:05;;;;;;;;;;;;;;;11.54;54.60;101000.25;5052275;28;19917;-74
2022/04/09 08:44:31;;;;;;;;;;;;;;;12.63;51.86;101007.94;5052393;28;20253;-75
2022/04/09 08:46:57;;;;;;;;;;;;;;;12.13;53.19;100999.44;5051972;28;19916;-73
2022/04/09 08:49:23;;;;;;;;;;;;;;;13.28;51.66;100997.78;5052826;28;19912;-73
2022/04/09 08:51:48;;;;;;;;;;;;;;;13.14;50.88;101003.47;5052068;28;19916;-73
2022/04/09 08:54:13;;;;;;;;;;;;;;;13.64;50.76;101008.25;5051809;28;20003;-72
2022/04/09 08:56:39;;;;;;;;;;;;;;;12.84;52.53;101005.47;5051355;28;19971;-72
2022/04/09 08:59:04;;;;;;;;;;;;;;;12.29;53.64;101015.75;5050909;28;19944;-72
2022/04/09 09:01:30;;;;;;;;;;;;;;;12.05;53.82;101010.53;5051021;28;20011;-73
2022/04/09 09:03:57;;;;;;;;;;;;;;;12.07;52.43;101021.91;5049921;28;19963;-72
2022/04/09 09:06:29;;;;;;;;;;;;;;;12.97;52.27;101016.00;5051649;28;20425;-71
2022/04/09 09:08:58;;;;;;;;;;;;;;;11.92;54.51;101027.72;5051808;28;19932;-74
2022/04/09 09:11:26;;;;;;;;;;;;;;;12.12;55.28;101028.25;5048985;28;19923;-71
2022/04/09 09:13:53;;;;;;;;;;;;;;;12.93;52.95;101025.59;5049878;28;19974;-73
2022/04/09 09:16:29;;;;;;;;;;;;;;;12.29;53.07;101036.47;5053242;28;19912;-71
2022/04/09 09:18:56;;;;;;;;;;;;;;;12.13;52.49;101042.53;5052729;28;19925;-72
2022/04/09 09:21:27;;;;;;;;;;;;;;;11.61;55.23;101030.63;5053004;28;19916;-71
2022/04/09 09:24:15;;;;;;;;;;;;;;;12.70;53.09;101028.31;5052884;28;19986;-70
2022/04/09 09:26:41;;;;;;;;;;;;;;;12.25;51.79;101035.31;5052698;28;19923;-71
2022/04/09 09:29:08;;;;;;;;;;;;;;;12.51;52.68;101031.34;5053309;28;20380;-70
2022/04/09 09:31:46;;;;;;;;;;;;;;;12.04;53.49;101031.28;5053644;28;20284;-72
2022/04/09 09:34:12;;;;;;;;;;;;;;;12.30;53.29;101065.88;5052795;28;19983;-71
2022/04/09 09:36:40;;;;;;;;;;;;;;;14.20;47.76;101048.72;5051181;28;20025;-70
2022/04/09 09:39:06;;;;;;;;;;;;;;;13.98;47.87;101053.19;5050873;28;19967;-72
2022/04/09 09:41:31;;;;;;;;;;;;;;;13.48;48.26;101047.63;5051146;28;20425;-73
2022/04/09 09:44:03;;;;;;;;;;;;;;;13.73;49.43;101047.31;5050969;28;20315;-73
2022/04/09 09:46:28;;;;;;;;;;;;;;;12.94;50.60;101048.84;5049759;28;19917;-70
2022/04/09 09:48:54;;;;;;;;;;;;;;;13.39;50.01;101054.44;5048982;28;19921;-72
2022/04/09 09:51:23;;;;;;;;;;;;;;;13.94;48.35;101074.47;5051529;28;19924;-71
2022/04/09 09:53:48;;;;;;;;;;;;;;;12.41;51.24;101080.44;5050980;28;19927;-71
2022/04/09 09:56:14;;;;;;;;;;;;;;;10.30;57.65;101085.72;5051530;28;19921;-72
2022/04/09 09:58:40;;;;;;;;;;;;;;;10.22;58.33;101109.34;5044099;28;20035;-74
2022/04/09 10:01:05;;;;;;;;;;;;;;;10.83;56.98;101098.75;5050145;28;19924;-73
2022/04/09 10:03:31;;;;;;;;;;;;;;;11.64;54.88;101083.16;5050800;28;19924;-70
2022/04/09 10:05:56;;;;;;;;;;;;;;;11.45;55.15;101083.19;5050960;28;19916;-72
2022/04/09 10:08:21;;;;;;;;;;;;;;;12.09;54.14;101087.13;5050904;28;20581;-71
2022/04/09 10:10:50;;;;;;;;;;;;;;;12.07;54.42;101103.53;5051026;28;19923;-70
2022/04/09 10:13:20;;;;;;;;;;;;;;;11.91;55.54;101096.09;5049933;28;19955;-72
2022/04/09 10:15:47;;;;;;;;;;;;;;;11.76;57.71;101105.63;5048463;28;19920;-73
2022/04/09 10:18:12;;;;;;;;;;;;;;;12.58;54.75;101099.47;5047741;28;20373;-71
2022/04/09 10:20:38;;;;;;;;;;;;;;;12.46;55.91;101115.59;5050550;28;19963;-73
2022/04/09 10:23:06;;;;;;;;;;;;;;;12.75;53.85;101103.97;5049425;28;19924;-71
2022/04/09 10:25:32;;;;;;;;;;;;;;;11.76;55.63;101105.63;5051266;28;19909;-72
2022/04/09 10:28:02;;;;;;;;;;;;;;;11.56;55.48;101108.50;5050928;28;19922;-72
2022/04/09 10:30:28;;;;;;;;;;;;;;;12.60;54.60;101106.25;5050990;28;19932;-73
2022/04/09 10:32:58;;;;;;;;;;;;;;;12.26;54.21;101104.31;5050393;28;19927;-73
2022/04/09 10:35:29;;;;;;;;;;;;;;;13.20;52.11;101096.97;5049527;28;19920;-71
2022/04/09 10:38:07;;;;;;;;;;;;;;;13.44;49.61;101113.97;5046335;28;19993;-71
2022/04/09 10:40:55;;;;;;;;;;;;;;;12.73;50.90;101111.47;5049989;28;19923;-70
2022/04/09 10:43:20;;;;;;;;;;;;;;;11.61;49.93;101145.53;4986109;28;20459;-73
2022/04/09 10:46:15;;;;;;;;;;;;;;;11.98;52.33;101114.88;4989074;28;19945;-71
2022/04/09 10:48:44;;;;;;;;;;;;;;;13.05;48.61;101117.38;4988489;28;19918;-73
2022/04/09 10:51:11;;;;;;;;;;;;;;;13.78;46.78;101129.25;4987647;28;19956;-71
2022/04/09 10:53:40;;;;;;;;;;;;;;;14.48;47.23;101121.72;4987359;28;19922;-70
2022/04/09 10:56:13;;;;;;;;;;;;;;;12.99;50.29;101121.00;4992071;28;20362;-72
2022/04/09 10:58:57;;;;;;;;;;;;;;;13.80;47.80;101132.53;4986393;28;19966;-71
2022/04/09 11:01:42;;;;;;;;;;;;;;;13.93;49.09;101128.75;4989521;28;19914;-72
2022/04/09 11:04:25;;;;;;;;;;;;;;;13.88;49.50;101134.03;4989895;28;20348;-70
2022/04/09 11:07:20;;;;;;;;;;;;;;;13.51;51.54;101130.00;4973762;28;19913;-71
2022/04/09 11:09:52;;;;;;;;;;;;;;;14.38;48.66;101136.94;4930528;29;19937;-71
2022/04/09 11:12:21;;;;;;;;;;;;;;;14.66;49.04;101131.50;4930329;29;19946;-72
2022/04/09 11:14:54;;;;;;;;;;;;;;;14.66;46.20;101142.31;4929877;29;20005;-73
2022/04/09 11:17:19;;;;;;;;;;;;;;;13.49;46.39;101140.22;4930161;29;19927;-71
2022/04/09 11:19:46;;;;;;;;;;;;;;;13.05;48.76;101153.25;4939419;28;19981;-71
2022/04/09 11:22:11;;;;;;;;;;;;;;;13.05;49.26;101150.56;4968511;28;20016;-71
2022/04/09 11:24:37;;;;;;;;;;;;;;;12.07;51.43;101178.13;4968589;28;20017;-70
2022/04/09 11:27:03;;;;;;;;;;;;;;;10.66;55.80;101214.03;4968796;28;20889;-72
2022/04/09 11:29:35;;;;;;;;;;;;;;;12.05;53.98;101207.16;4968535;28;19917;-71
2022/04/09 11:32:01;;;;;;;;;;;;;;;11.30;52.56;101187.66;4968217;28;19914;-70
2022/04/09 11:34:26;;;;;;;;;;;;;;;12.38;51.74;101198.69;4968365;28;19910;-70
2022/04/09 11:37:07;;;;;;;;;;;;;;;12.00;53.01;101197.09;4967741;28;19930;-73
2022/04/09 11:39:37;;;;;;;;;;;;;;;12.69;49.13;101185.78;4967632;28;20106;-71
2022/04/09 11:42:02;;;;;;;;;;;;;;;11.97;51.80;101197.53;4967206;28;19928;-72
2022/04/09 11:44:28;;;;;;;;;;;;;;;12.31;51.88;101199.59;4988038;28;20072;-71
2022/04/09 11:46:53;;;;;;;;;;;;;;;12.89;50.30;101191.66;5037176;28;19916;-69
2022/04/09 11:49:18;;;;;;;;;;;;;;;12.86;48.36;101192.16;5054194;28;19944;-70
2022/04/09 11:51:56;;;;;;;;;;;;;;;13.68;48.56;101191.16;5044627;28;20597;-70
2022/04/09 11:54:21;;;;;;;;;;;;;;;13.97;47.68;101189.34;5046194;28;19959;-70
2022/04/09 11:56:47;;;;;;;;;;;;;;;13.76;48.00;101187.25;5049400;28;19953;-70
2022/04/09 11:59:15;;;;;;;;;;;;;;;13.92;48.29;101195.47;5048386;28;19924;-71
2022/04/09 12:01:47;;;;;;;;;;;;;;;13.72;48.96;101191.53;5049861;28;19962;-71
2022/04/09 12:04:13;;;;;;;;;;;;;;;13.51;48.05;101195.63;5050320;28;19960;-70
2022/04/09 12:06:39;;;;;;;;;;;;;;;13.82;47.83;101183.59;5049761;28;19962;-70
2022/04/09 12:09:04;;;;;;;;;;;;;;;14.16;46.55;101193.53;5049676;28;20440;-71
2022/04/09 12:11:29;;;;;;;;;;;;;;;13.70;50.40;101194.44;5051119;28;20265;-69
2022/04/09 12:13:54;;;;;;;;;;;;;;;13.66;47.03;101201.38;5050566;28;19940;-70
2022/04/09 12:16:20;;;;;;;;;;;;;;;13.85;47.69;101202.88;5050562;28;19912;-70
2022/04/09 12:18:46;;;;;;;;;;;;;;;12.66;48.74;101194.31;5048498;28;20298;-70
2022/04/09 12:21:18;;;;;;;;;;;;;;;12.73;49.75;101205.00;5050199;28;20007;-71
2022/04/09 12:23:44;;;;;;;;;;;;;;;13.46;47.06;101209.03;5049800;28;19952;-70
2022/04/09 12:26:22;;;;;;;;;;;;;;;12.54;49.63;101204.22;5050083;28;19978;-69
2022/04/09 12:29:03;;;;;;;;;;;;;;;13.53;48.13;101206.19;5049059;28;19974;-70
2022/04/09 12:31:29;;;;;;;;;;;;;;;14.08;45.47;101216.34;5050912;28;19908;-70
2022/04/09 12:33:57;;;;;;;;;;;;;;;12.79;48.03;101212.19;5050276;28;20309;-70
2022/04/09 12:36:23;;;;;;;;;;;;;;;13.60;46.65;101206.91;5049589;28;19923;-70